sensor_id;sensor_type;location;lat;lon;timestamp;temperature;humidity
17659;DHT22;8948;51.534;8.262;2022-10-16T00:02:58;15.70;71.90
17659;DHT22;8948;51.534;8.262;2022-10-16T00:07:59;15.70;71.80
17659;DHT22;8948;51.534;8.262;2022-10-16T00:13:00;15.70;71.60
17659;DHT22;8948;51.534;8.262;2022-10-16T00:18:00;15.70;71.70
17659;DHT22;8948;51.534;8.262;2022-10-16T00:23:01;15.70;71.70
17659;DHT22;8948;51.534;8.262;2022-10-16T00:28:01;15.60;71.60
17659;DHT22;8948;51.534;8.262;2022-10-16T00:33:02;15.50;71.80
17659;DHT22;8948;51.534;8.262;2022-10-16T00:38:02;15.50;72.00
17659;DHT22;8948;51.534;8.262;2022-10-16T00:43:31;15.50;72.10
17659;DHT22;8948;51.534;8.262;2022-10-16T00:48:32;15.40;72.30
17659;DHT22;8948;51.534;8.262;2022-10-16T00:53:32;15.30;72.40
17659;DHT22;8948;51.534;8.262;2022-10-16T00:58:33;15.30;72.60
17659;DHT22;8948;51.534;8.262;2022-10-16T01:03:36;15.20;72.90
17659;DHT22;8948;51.534;8.262;2022-10-16T01:14:53;15.10;73.00
17659;DHT22;8948;51.534;8.262;2022-10-16T01:25:05;15.00;73.50
17659;DHT22;8948;51.534;8.262;2022-10-16T01:30:18;15.00;73.10
17659;DHT22;8948;51.534;8.262;2022-10-16T01:35:30;15.00;73.10
17659;DHT22;8948;51.534;8.262;2022-10-16T01:40:34;14.90;73.40
17659;DHT22;8948;51.534;8.262;2022-10-16T01:45:36;15.00;73.00
17659;DHT22;8948;51.534;8.262;2022-10-16T01:50:38;15.00;72.80
17659;DHT22;8948;51.534;8.262;2022-10-16T01:55:44;15.10;72.70
17659;DHT22;8948;51.534;8.262;2022-10-16T02:00:47;15.00;72.60
17659;DHT22;8948;51.534;8.262;2022-10-16T02:05:56;14.90;73.00
17659;DHT22;8948;51.534;8.262;2022-10-16T02:10:58;14.80;73.40
17659;DHT22;8948;51.534;8.262;2022-10-16T02:16:00;14.80;73.20
17659;DHT22;8948;51.534;8.262;2022-10-16T02:21:22;14.90;72.90
17659;DHT22;8948;51.534;8.262;2022-10-16T02:26:30;14.90;72.90
17659;DHT22;8948;51.534;8.262;2022-10-16T02:31:34;14.90;73.00
17659;DHT22;8948;51.534;8.262;2022-10-16T02:36:36;14.80;73.10
17659;DHT22;8948;51.534;8.262;2022-10-16T02:41:37;14.70;73.40
17659;DHT22;8948;51.534;8.262;2022-10-16T02:46:37;14.70;73.50
17659;DHT22;8948;51.534;8.262;2022-10-16T02:51:38;14.70;73.80
17659;DHT22;8948;51.534;8.262;2022-10-16T02:56:39;14.70;73.60
17659;DHT22;8948;51.534;8.262;2022-10-16T03:01:39;14.70;73.60
17659;DHT22;8948;51.534;8.262;2022-10-16T03:06:40;14.70;73.50
17659;DHT22;8948;51.534;8.262;2022-10-16T03:11:40;14.60;73.60
17659;DHT22;8948;51.534;8.262;2022-10-16T03:16:41;14.60;73.50
17659;DHT22;8948;51.534;8.262;2022-10-16T03:21:41;14.60;73.70
17659;DHT22;8948;51.534;8.262;2022-10-16T03:26:42;14.60;73.70
17659;DHT22;8948;51.534;8.262;2022-10-16T03:31:43;14.70;73.50
17659;DHT22;8948;51.534;8.262;2022-10-16T03:36:43;14.70;73.70
17659;DHT22;8948;51.534;8.262;2022-10-16T03:41:44;14.70;73.40
17659;DHT22;8948;51.534;8.262;2022-10-16T03:46:44;14.80;73.20
17659;DHT22;8948;51.534;8.262;2022-10-16T03:51:45;14.70;73.10
17659;DHT22;8948;51.534;8.262;2022-10-16T03:56:46;14.70;73.20
17659;DHT22;8948;51.534;8.262;2022-10-16T04:01:46;14.70;73.00
17659;DHT22;8948;51.534;8.262;2022-10-16T04:06:47;14.80;72.70
17659;DHT22;8948;51.534;8.262;2022-10-16T04:11:47;14.80;72.60
17659;DHT22;8948;51.534;8.262;2022-10-16T04:16:48;14.70;73.10
17659;DHT22;8948;51.534;8.262;2022-10-16T04:21:48;14.60;73.10
17659;DHT22;8948;51.534;8.262;2022-10-16T04:26:49;14.50;73.40
17659;DHT22;8948;51.534;8.262;2022-10-16T04:31:49;14.40;73.80
17659;DHT22;8948;51.534;8.262;2022-10-16T04:36:50;14.40;73.80
17659;DHT22;8948;51.534;8.262;2022-10-16T04:41:50;14.40;73.60
17659;DHT22;8948;51.534;8.262;2022-10-16T04:46:51;14.40;73.80
17659;DHT22;8948;51.534;8.262;2022-10-16T04:51:52;14.30;74.00
17659;DHT22;8948;51.534;8.262;2022-10-16T04:56:52;14.40;73.80
17659;DHT22;8948;51.534;8.262;2022-10-16T05:01:53;14.40;73.60
17659;DHT22;8948;51.534;8.262;2022-10-16T05:06:53;14.40;73.70
17659;DHT22;8948;51.534;8.262;2022-10-16T05:11:54;14.40;73.50
17659;DHT22;8948;51.534;8.262;2022-10-16T05:16:54;14.40;73.60
17659;DHT22;8948;51.534;8.262;2022-10-16T05:21:55;14.30;73.70
17659;DHT22;8948;51.534;8.262;2022-10-16T05:26:56;14.30;73.60
17659;DHT22;8948;51.534;8.262;2022-10-16T05:31:56;14.30;73.70
17659;DHT22;8948;51.534;8.262;2022-10-16T05:36:57;14.20;73.70
17659;DHT22;8948;51.534;8.262;2022-10-16T05:41:58;14.20;73.90
17659;DHT22;8948;51.534;8.262;2022-10-16T05:46:58;14.20;73.90
17659;DHT22;8948;51.534;8.262;2022-10-16T05:51:59;14.30;74.00
17659;DHT22;8948;51.534;8.262;2022-10-16T05:56:59;14.30;74.20
17659;DHT22;8948;51.534;8.262;2022-10-16T06:02:00;14.40;74.00
17659;DHT22;8948;51.534;8.262;2022-10-16T06:07:00;14.40;73.80
17659;DHT22;8948;51.534;8.262;2022-10-16T06:12:01;14.40;73.80
17659;DHT22;8948;51.534;8.262;2022-10-16T06:17:02;14.40;73.90
17659;DHT22;8948;51.534;8.262;2022-10-16T06:22:02;14.40;74.00
17659;DHT22;8948;51.534;8.262;2022-10-16T06:27:04;14.40;74.10
17659;DHT22;8948;51.534;8.262;2022-10-16T06:32:05;14.50;74.10
17659;DHT22;8948;51.534;8.262;2022-10-16T06:37:05;14.50;74.10
17659;DHT22;8948;51.534;8.262;2022-10-16T06:42:06;14.60;74.20
17659;DHT22;8948;51.534;8.262;2022-10-16T06:47:06;14.80;73.70
17659;DHT22;8948;51.534;8.262;2022-10-16T06:52:07;14.80;73.70
17659;DHT22;8948;51.534;8.262;2022-10-16T06:57:07;14.90;73.60
17659;DHT22;8948;51.534;8.262;2022-10-16T07:02:08;15.00;73.40
17659;DHT22;8948;51.534;8.262;2022-10-16T07:07:10;15.10;73.30
17659;DHT22;8948;51.534;8.262;2022-10-16T07:12:10;15.30;73.00
17659;DHT22;8948;51.534;8.262;2022-10-16T07:17:11;15.50;72.80
17659;DHT22;8948;51.534;8.262;2022-10-16T07:22:11;15.70;72.40
17659;DHT22;8948;51.534;8.262;2022-10-16T07:27:12;16.00;72.20
17659;DHT22;8948;51.534;8.262;2022-10-16T07:32:12;16.20;71.70
17659;DHT22;8948;51.534;8.262;2022-10-16T07:37:13;16.30;71.60
17659;DHT22;8948;51.534;8.262;2022-10-16T07:42:14;16.50;71.00
17659;DHT22;8948;51.534;8.262;2022-10-16T07:47:14;16.50;71.00
17659;DHT22;8948;51.534;8.262;2022-10-16T07:52:15;16.70;70.50
17659;DHT22;8948;51.534;8.262;2022-10-16T07:57:15;17.00;70.50
17659;DHT22;8948;51.534;8.262;2022-10-16T08:02:19;17.20;69.20
17659;DHT22;8948;51.534;8.262;2022-10-16T08:07:20;17.30;68.40
17659;DHT22;8948;51.534;8.262;2022-10-16T08:12:20;17.40;69.80
17659;DHT22;8948;51.534;8.262;2022-10-16T08:17:21;17.60;68.20
17659;DHT22;8948;51.534;8.262;2022-10-16T08:22:21;17.80;68.20
17659;DHT22;8948;51.534;8.262;2022-10-16T08:27:22;17.90;67.60
17659;DHT22;8948;51.534;8.262;2022-10-16T08:32:22;17.70;67.40
17659;DHT22;8948;51.534;8.262;2022-10-16T08:37:23;17.70;66.70
17659;DHT22;8948;51.534;8.262;2022-10-16T08:52:54;17.70;66.10
17659;DHT22;8948;51.534;8.262;2022-10-16T08:57:55;18.00;65.40
17659;DHT22;8948;51.534;8.262;2022-10-16T09:03:23;18.10;64.90
17659;DHT22;8948;51.534;8.262;2022-10-16T09:08:37;18.10;63.60
17659;DHT22;8948;51.534;8.262;2022-10-16T09:19:38;18.50;62.80
17659;DHT22;8948;51.534;8.262;2022-10-16T09:24:42;18.70;62.10
17659;DHT22;8948;51.534;8.262;2022-10-16T09:29:43;18.90;60.60
17659;DHT22;8948;51.534;8.262;2022-10-16T09:34:55;18.90;59.50
17659;DHT22;8948;51.534;8.262;2022-10-16T09:39:56;19.20;57.80
17659;DHT22;8948;51.534;8.262;2022-10-16T09:44:57;19.20;57.50
17659;DHT22;8948;51.534;8.262;2022-10-16T09:50:00;19.50;57.30
17659;DHT22;8948;51.534;8.262;2022-10-16T09:55:13;19.80;56.80
17659;DHT22;8948;51.534;8.262;2022-10-16T10:00:16;20.20;55.70
17659;DHT22;8948;51.534;8.262;2022-10-16T10:05:28;20.00;54.90
17659;DHT22;8948;51.534;8.262;2022-10-16T10:10:32;20.20;52.80
17659;DHT22;8948;51.534;8.262;2022-10-16T10:15:34;20.30;51.40
17659;DHT22;8948;51.534;8.262;2022-10-16T10:20:36;20.50;52.70
17659;DHT22;8948;51.534;8.262;2022-10-16T10:36:37;20.90;51.90
17659;DHT22;8948;51.534;8.262;2022-10-16T10:47:47;21.20;49.60
17659;DHT22;8948;51.534;8.262;2022-10-16T11:08:56;20.90;49.60
17659;DHT22;8948;51.534;8.262;2022-10-16T11:14:16;21.00;48.90
17659;DHT22;8948;51.534;8.262;2022-10-16T11:25:13;21.80;47.00
17659;DHT22;8948;51.534;8.262;2022-10-16T11:30:24;22.40;47.00
17659;DHT22;8948;51.534;8.262;2022-10-16T11:46:53;22.90;46.60
17659;DHT22;8948;51.534;8.262;2022-10-16T11:52:11;22.80;46.00
17659;DHT22;8948;51.534;8.262;2022-10-16T11:57:23;23.00;46.20
17659;DHT22;8948;51.534;8.262;2022-10-16T12:02:57;23.10;46.20
17659;DHT22;8948;51.534;8.262;2022-10-16T12:08:12;23.60;44.70
17659;DHT22;8948;51.534;8.262;2022-10-16T12:13:40;23.80;43.80
17659;DHT22;8948;51.534;8.262;2022-10-16T12:18:44;23.60;42.80
17659;DHT22;8948;51.534;8.262;2022-10-16T12:23:54;23.50;42.90
17659;DHT22;8948;51.534;8.262;2022-10-16T12:28:56;23.60;43.20
17659;DHT22;8948;51.534;8.262;2022-10-16T12:39:24;24.50;41.90
17659;DHT22;8948;51.534;8.262;2022-10-16T12:44:33;24.70;43.50
17659;DHT22;8948;51.534;8.262;2022-10-16T12:49:37;24.70;42.00
17659;DHT22;8948;51.534;8.262;2022-10-16T12:54:39;24.80;42.20
17659;DHT22;8948;51.534;8.262;2022-10-16T12:59:50;25.10;42.00
17659;DHT22;8948;51.534;8.262;2022-10-16T13:05:15;25.20;41.30
17659;DHT22;8948;51.534;8.262;2022-10-16T13:31:51;25.60;41.00
17659;DHT22;8948;51.534;8.262;2022-10-16T13:36:53;26.00;42.50
17659;DHT22;8948;51.534;8.262;2022-10-16T13:42:04;26.20;41.30
17659;DHT22;8948;51.534;8.262;2022-10-16T13:47:05;25.60;41.30
17659;DHT22;8948;51.534;8.262;2022-10-16T13:52:15;25.10;41.50
17659;DHT22;8948;51.534;8.262;2022-10-16T13:57:17;24.60;42.50
17659;DHT22;8948;51.534;8.262;2022-10-16T14:02:32;24.50;43.40
17659;DHT22;8948;51.534;8.262;2022-10-16T14:07:35;24.20;42.70
17659;DHT22;8948;51.534;8.262;2022-10-16T14:12:36;23.80;44.00
17659;DHT22;8948;51.534;8.262;2022-10-16T14:17:43;24.10;43.50
17659;DHT22;8948;51.534;8.262;2022-10-16T14:22:45;24.50;43.20
17659;DHT22;8948;51.534;8.262;2022-10-16T14:28:00;24.90;42.90
17659;DHT22;8948;51.534;8.262;2022-10-16T14:33:03;25.20;41.10
17659;DHT22;8948;51.534;8.262;2022-10-16T14:38:05;25.10;41.90
17659;DHT22;8948;51.534;8.262;2022-10-16T14:43:06;25.10;42.40
17659;DHT22;8948;51.534;8.262;2022-10-16T14:48:17;24.90;42.60
17659;DHT22;8948;51.534;8.262;2022-10-16T14:53:18;24.60;41.10
17659;DHT22;8948;51.534;8.262;2022-10-16T14:58:21;24.50;42.80
17659;DHT22;8948;51.534;8.262;2022-10-16T15:03:23;24.80;43.50
17659;DHT22;8948;51.534;8.262;2022-10-16T15:08:23;25.10;44.00
17659;DHT22;8948;51.534;8.262;2022-10-16T15:13:24;25.10;42.60
17659;DHT22;8948;51.534;8.262;2022-10-16T15:18:24;24.70;42.70
17659;DHT22;8948;51.534;8.262;2022-10-16T15:23:25;24.10;43.00
17659;DHT22;8948;51.534;8.262;2022-10-16T15:28:26;23.70;44.60
17659;DHT22;8948;51.534;8.262;2022-10-16T15:33:27;23.40;46.00
17659;DHT22;8948;51.534;8.262;2022-10-16T15:38:33;23.10;46.20
17659;DHT22;8948;51.534;8.262;2022-10-16T15:43:33;22.60;47.10
17659;DHT22;8948;51.534;8.262;2022-10-16T15:48:34;22.40;47.80
17659;DHT22;8948;51.534;8.262;2022-10-16T15:53:35;22.20;48.50
17659;DHT22;8948;51.534;8.262;2022-10-16T15:58:36;22.20;49.10
17659;DHT22;8948;51.534;8.262;2022-10-16T16:03:38;22.10;49.00
17659;DHT22;8948;51.534;8.262;2022-10-16T16:08:40;22.00;49.00
17659;DHT22;8948;51.534;8.262;2022-10-16T16:13:41;22.00;49.60
17659;DHT22;8948;51.534;8.262;2022-10-16T16:18:42;21.90;50.00
17659;DHT22;8948;51.534;8.262;2022-10-16T16:23:43;21.80;49.80
17659;DHT22;8948;51.534;8.262;2022-10-16T16:28:44;21.80;50.60
17659;DHT22;8948;51.534;8.262;2022-10-16T16:33:44;21.70;50.70
17659;DHT22;8948;51.534;8.262;2022-10-16T16:38:45;21.70;50.40
17659;DHT22;8948;51.534;8.262;2022-10-16T16:43:46;21.60;50.70
17659;DHT22;8948;51.534;8.262;2022-10-16T16:48:47;21.50;50.80
17659;DHT22;8948;51.534;8.262;2022-10-16T16:53:52;21.40;52.00
17659;DHT22;8948;51.534;8.262;2022-10-16T16:58:55;21.40;52.30
17659;DHT22;8948;51.534;8.262;2022-10-16T17:03:56;21.30;53.00
17659;DHT22;8948;51.534;8.262;2022-10-16T17:08:58;21.20;53.40
17659;DHT22;8948;51.534;8.262;2022-10-16T17:14:01;21.10;54.30
17659;DHT22;8948;51.534;8.262;2022-10-16T17:19:07;21.00;54.50
17659;DHT22;8948;51.534;8.262;2022-10-16T17:24:09;21.00;54.70
17659;DHT22;8948;51.534;8.262;2022-10-16T17:29:11;20.80;54.50
17659;DHT22;8948;51.534;8.262;2022-10-16T17:34:12;20.80;54.90
17659;DHT22;8948;51.534;8.262;2022-10-16T17:39:14;20.70;54.80
17659;DHT22;8948;51.534;8.262;2022-10-16T17:44:17;20.60;54.40
17659;DHT22;8948;51.534;8.262;2022-10-16T17:49:20;20.60;54.50
17659;DHT22;8948;51.534;8.262;2022-10-16T17:54:21;20.50;55.20
17659;DHT22;8948;51.534;8.262;2022-10-16T17:59:22;20.50;55.20
17659;DHT22;8948;51.534;8.262;2022-10-16T18:04:22;20.40;55.50
17659;DHT22;8948;51.534;8.262;2022-10-16T18:09:23;20.30;55.60
17659;DHT22;8948;51.534;8.262;2022-10-16T18:14:23;20.00;56.00
17659;DHT22;8948;51.534;8.262;2022-10-16T18:19:25;20.00;56.20
17659;DHT22;8948;51.534;8.262;2022-10-16T18:24:26;19.90;56.30
17659;DHT22;8948;51.534;8.262;2022-10-16T18:29:26;19.70;56.60
17659;DHT22;8948;51.534;8.262;2022-10-16T18:34:27;19.70;56.80
17659;DHT22;8948;51.534;8.262;2022-10-16T18:39:27;19.50;57.20
17659;DHT22;8948;51.534;8.262;2022-10-16T18:44:28;19.60;57.20
17659;DHT22;8948;51.534;8.262;2022-10-16T18:49:30;19.60;57.20
17659;DHT22;8948;51.534;8.262;2022-10-16T18:54:31;19.70;57.20
17659;DHT22;8948;51.534;8.262;2022-10-16T18:59:31;19.70;57.40
17659;DHT22;8948;51.534;8.262;2022-10-16T19:04:32;19.80;57.20
17659;DHT22;8948;51.534;8.262;2022-10-16T19:09:32;19.80;57.40
17659;DHT22;8948;51.534;8.262;2022-10-16T19:14:33;19.80;57.90
17659;DHT22;8948;51.534;8.262;2022-10-16T19:19:34;19.80;57.70
17659;DHT22;8948;51.534;8.262;2022-10-16T19:24:34;19.80;58.00
17659;DHT22;8948;51.534;8.262;2022-10-16T19:29:35;19.70;58.90
17659;DHT22;8948;51.534;8.262;2022-10-16T19:34:36;19.60;59.80
17659;DHT22;8948;51.534;8.262;2022-10-16T19:39:36;19.40;60.60
17659;DHT22;8948;51.534;8.262;2022-10-16T19:44:37;19.40;61.40
17659;DHT22;8948;51.534;8.262;2022-10-16T19:49:37;19.40;61.30
17659;DHT22;8948;51.534;8.262;2022-10-16T19:54:38;19.30;61.60
17659;DHT22;8948;51.534;8.262;2022-10-16T19:59:39;19.20;62.10
17659;DHT22;8948;51.534;8.262;2022-10-16T20:04:39;19.20;62.30
17659;DHT22;8948;51.534;8.262;2022-10-16T20:09:40;19.10;62.60
17659;DHT22;8948;51.534;8.262;2022-10-16T20:14:40;19.10;62.80
17659;DHT22;8948;51.534;8.262;2022-10-16T20:19:41;19.20;62.80
17659;DHT22;8948;51.534;8.262;2022-10-16T20:24:41;19.10;63.60
17659;DHT22;8948;51.534;8.262;2022-10-16T20:29:42;19.10;64.20
17659;DHT22;8948;51.534;8.262;2022-10-16T20:34:43;19.00;65.10
17659;DHT22;8948;51.534;8.262;2022-10-16T20:39:48;19.10;64.10
17659;DHT22;8948;51.534;8.262;2022-10-16T20:44:48;19.10;64.00
17659;DHT22;8948;51.534;8.262;2022-10-16T20:49:49;19.00;64.30
17659;DHT22;8948;51.534;8.262;2022-10-16T20:54:51;19.00;64.40
17659;DHT22;8948;51.534;8.262;2022-10-16T20:59:52;18.90;64.60
17659;DHT22;8948;51.534;8.262;2022-10-16T21:04:54;18.90;64.40
17659;DHT22;8948;51.534;8.262;2022-10-16T21:09:55;18.80;64.40
17659;DHT22;8948;51.534;8.262;2022-10-16T21:14:56;18.70;64.40
17659;DHT22;8948;51.534;8.262;2022-10-16T21:19:57;18.50;64.60
17659;DHT22;8948;51.534;8.262;2022-10-16T21:24:57;18.40;65.00
17659;DHT22;8948;51.534;8.262;2022-10-16T21:29:58;18.30;65.20
17659;DHT22;8948;51.534;8.262;2022-10-16T21:34:58;18.20;65.30
17659;DHT22;8948;51.534;8.262;2022-10-16T21:39:59;18.10;65.50
17659;DHT22;8948;51.534;8.262;2022-10-16T21:45:00;18.00;65.10
17659;DHT22;8948;51.534;8.262;2022-10-16T21:50:00;17.80;65.70
17659;DHT22;8948;51.534;8.262;2022-10-16T21:55:01;17.70;65.80
17659;DHT22;8948;51.534;8.262;2022-10-16T22:00:02;17.70;66.10
17659;DHT22;8948;51.534;8.262;2022-10-16T22:05:03;17.50;66.10
17659;DHT22;8948;51.534;8.262;2022-10-16T22:10:04;17.40;66.30
17659;DHT22;8948;51.534;8.262;2022-10-16T22:15:05;17.40;66.40
17659;DHT22;8948;51.534;8.262;2022-10-16T22:20:06;17.30;66.70
17659;DHT22;8948;51.534;8.262;2022-10-16T22:25:07;17.20;67.20
17659;DHT22;8948;51.534;8.262;2022-10-16T22:30:08;17.10;66.90
17659;DHT22;8948;51.534;8.262;2022-10-16T22:35:09;17.10;67.00
17659;DHT22;8948;51.534;8.262;2022-10-16T22:40:11;17.00;67.20
17659;DHT22;8948;51.534;8.262;2022-10-16T22:45:12;17.00;67.10
17659;DHT22;8948;51.534;8.262;2022-10-16T22:50:12;16.90;67.10
17659;DHT22;8948;51.534;8.262;2022-10-16T22:55:13;16.90;68.00
17659;DHT22;8948;51.534;8.262;2022-10-16T23:00:17;17.00;69.40
17659;DHT22;8948;51.534;8.262;2022-10-16T23:05:18;17.10;70.90
17659;DHT22;8948;51.534;8.262;2022-10-16T23:10:18;17.40;71.30
17659;DHT22;8948;51.534;8.262;2022-10-16T23:15:19;17.60;71.20
17659;DHT22;8948;51.534;8.262;2022-10-16T23:20:19;17.70;71.00
17659;DHT22;8948;51.534;8.262;2022-10-16T23:25:20;17.80;70.90
17659;DHT22;8948;51.534;8.262;2022-10-16T23:30:20;17.80;70.60
17659;DHT22;8948;51.534;8.262;2022-10-16T23:35:21;17.90;71.00
17659;DHT22;8948;51.534;8.262;2022-10-16T23:40:21;17.80;70.80
17659;DHT22;8948;51.534;8.262;2022-10-16T23:45:22;17.80;70.60
17659;DHT22;8948;51.534;8.262;2022-10-16T23:50:22;17.90;70.50
17659;DHT22;8948;51.534;8.262;2022-10-16T23:55:23;17.90;70.20
